createdAt,value
2022-09-01T00:01:49.571Z,100172.34
2022-09-01T00:04:20.369Z,100167.53
2022-09-01T00:06:48.043Z,100167.34
2022-09-01T00:09:18.402Z,100170.34
2022-09-01T00:11:50.518Z,100168.97
2022-09-01T00:14:29.712Z,100170.75
2022-09-01T00:17:03.413Z,100174.19
2022-09-01T00:19:30.213Z,100165.63
2022-09-01T00:21:57.378Z,100166.09
2022-09-01T00:24:26.438Z,100165.38
2022-09-01T00:26:54.607Z,100161.59
2022-09-01T00:29:21.620Z,100153.03
2022-09-01T00:31:48.866Z,100156.00
2022-09-01T00:34:16.415Z,100153.25
2022-09-01T00:36:44.290Z,100163.81
2022-09-01T00:39:11.510Z,100159.03
2022-09-01T00:41:39.965Z,100156.06
2022-09-01T00:44:12.053Z,100156.16
2022-09-01T00:46:47.751Z,100159.06
2022-09-01T00:49:35.968Z,100149.41
2022-09-01T00:52:14.143Z,100150.72
2022-09-01T00:54:46.010Z,100154.59
2022-09-01T00:57:13.823Z,100158.81
2022-09-01T00:59:46.367Z,100158.00
2022-09-01T01:02:13.407Z,100156.13
2022-09-01T01:04:41.200Z,100152.22
2022-09-01T01:07:09.438Z,100153.91
2022-09-01T01:09:40.682Z,100152.16
2022-09-01T01:12:14.120Z,100143.28
2022-09-01T01:14:45.855Z,100141.88
2022-09-01T01:17:12.883Z,100146.38
2022-09-01T01:20:05.352Z,100145.06
2022-09-01T01:23:05.649Z,100141.41
2022-09-01T01:25:42.751Z,100141.03
2022-09-01T01:28:40.321Z,100136.88
2022-09-01T01:31:13.194Z,100137.19
2022-09-01T01:33:42.934Z,100133.22
2022-09-01T01:36:25.866Z,100131.84
2022-09-01T01:38:54.118Z,100131.53
2022-09-01T01:41:21.898Z,100133.19
2022-09-01T01:43:48.964Z,100137.28
2022-09-01T01:46:18.126Z,100133.75
2022-09-01T01:48:47.169Z,100139.81
2022-09-01T01:51:20.052Z,100137.41
2022-09-01T01:53:52.852Z,100140.75
2022-09-01T01:56:22.843Z,100148.06
2022-09-01T01:58:54.202Z,100144.75
2022-09-01T02:01:26.013Z,100143.50
2022-09-01T02:03:54.914Z,100137.25
2022-09-01T02:06:24.989Z,100144.28
2022-09-01T02:09:03.254Z,100135.38
2022-09-01T02:11:33.542Z,100142.91
2022-09-01T02:14:01.115Z,100145.75
2022-09-01T02:16:29.472Z,100146.97
2022-09-01T02:18:56.989Z,100139.47
2022-09-01T02:21:25.194Z,100142.16
2022-09-01T02:24:01.118Z,100140.53
2022-09-01T02:26:38.572Z,100146.09
2022-09-01T02:29:18.183Z,100137.91
2022-09-01T02:31:55.738Z,100144.41
2022-09-01T02:34:24.410Z,100134.56
2022-09-01T02:36:54.070Z,100141.75
2022-09-01T02:39:28.548Z,100134.78
2022-09-01T02:41:56.060Z,100136.34
2022-09-01T02:44:27.941Z,100137.38
2022-09-01T02:46:55.084Z,100131.78
2022-09-01T02:49:30.155Z,100134.09
2022-09-01T02:52:01.215Z,100139.13
2022-09-01T02:54:32.683Z,100135.03
2022-09-01T02:57:00.274Z,100129.09
2022-09-01T02:59:28.901Z,100137.19
2022-09-01T03:01:59.124Z,100128.09
2022-09-01T03:04:27.469Z,100125.84
2022-09-01T03:06:55.287Z,100125.00
2022-09-01T03:09:22.693Z,100128.34
2022-09-01T03:11:53.071Z,100128.66
2022-09-01T03:14:21.636Z,100122.50
2022-09-01T03:16:49.617Z,100122.03
2022-09-01T03:19:22.287Z,100111.56
2022-09-01T03:21:50.422Z,100118.09
2022-09-01T03:24:23.067Z,100115.47
2022-09-01T03:26:51.661Z,100110.91
2022-09-01T03:29:20.446Z,100125.47
2022-09-01T03:31:47.503Z,100122.16
2022-09-01T03:34:16.355Z,100121.03
2022-09-01T03:36:51.054Z,100116.78
2022-09-01T03:39:27.529Z,100120.41
2022-09-01T03:41:55.267Z,100122.44
2022-09-01T03:44:22.259Z,100123.47
2022-09-01T03:46:49.208Z,100120.59
2022-09-01T03:49:17.123Z,100126.81
2022-09-01T03:51:45.555Z,100134.63
2022-09-01T03:54:12.783Z,100127.06
2022-09-01T03:56:41.473Z,100129.31
2022-09-01T03:59:17.374Z,100123.25
2022-09-01T04:01:46.830Z,100130.13
2022-09-01T04:04:16.536Z,100133.78
2022-09-01T04:11:18.556Z,100138.22
2022-09-01T04:13:48.194Z,100138.41
2022-09-01T04:16:45.059Z,100132.09
2022-09-01T04:19:20.976Z,100136.09
2022-09-01T04:21:54.208Z,100134.97
2022-09-01T04:24:28.416Z,100130.63
2022-09-01T04:26:58.577Z,100131.44
2022-09-01T04:29:29.118Z,100128.94
2022-09-01T04:32:03.891Z,100129.47
2022-09-01T04:34:42.629Z,100129.41
2022-09-01T04:37:18.304Z,100130.25
2022-09-01T04:39:56.032Z,100124.41
2022-09-01T04:42:25.671Z,100136.47
2022-09-01T04:44:54.482Z,100133.59
2022-09-01T04:47:35.731Z,100132.75
2022-09-01T04:50:14.396Z,100130.91
2022-09-01T04:52:45.127Z,100124.41
2022-09-01T04:55:24.651Z,100131.19
2022-09-01T04:57:52.467Z,100133.97
2022-09-01T05:00:24.925Z,100134.25
2022-09-01T05:02:54.131Z,100143.97
2022-09-01T05:05:24.182Z,100141.22
2022-09-01T05:07:55.467Z,100147.16
2022-09-01T05:10:29.117Z,100144.25
2022-09-01T05:13:17.691Z,100141.78
2022-09-01T05:15:49.226Z,100134.25
2022-09-01T05:18:23.521Z,100141.50
2022-09-01T05:20:52.374Z,100139.91
2022-09-01T05:23:19.655Z,100144.75
2022-09-01T05:25:49.524Z,100145.56
2022-09-01T05:28:19.065Z,100143.25
2022-09-01T05:30:47.813Z,100153.09
2022-09-01T05:33:21.133Z,100142.94
2022-09-01T05:35:55.585Z,100150.41
2022-09-01T05:38:24.293Z,100148.81
2022-09-01T05:41:03.553Z,100145.47
2022-09-01T05:43:31.527Z,100156.00
2022-09-01T05:46:06.539Z,100145.59
2022-09-01T05:48:39.750Z,100163.88
2022-09-01T05:51:27.476Z,100163.44
2022-09-01T05:53:59.117Z,100163.78
2022-09-01T05:56:28.412Z,100166.84
2022-09-01T06:01:46.845Z,100167.16
2022-09-01T06:04:16.519Z,100164.59
2022-09-01T06:07:05.716Z,100170.28
2022-09-01T06:09:33.499Z,100162.84
2022-09-01T06:12:02.022Z,100158.56
2022-09-01T06:14:28.959Z,100163.13
2022-09-01T06:16:56.375Z,100167.41
2022-09-01T06:19:23.398Z,100157.72
2022-09-01T06:21:51.057Z,100167.28
2022-09-01T06:24:18.007Z,100168.34
2022-09-01T06:26:46.216Z,100161.06
2022-09-01T06:29:15.331Z,100175.56
2022-09-01T06:31:51.988Z,100167.69
2022-09-01T06:34:20.043Z,100164.75
2022-09-01T06:36:49.398Z,100166.84
2022-09-01T06:39:20.054Z,100166.41
2022-09-01T06:41:52.995Z,100170.75
2022-09-01T06:44:24.889Z,100170.56
2022-09-01T06:47:00.577Z,100170.75
2022-09-01T06:49:34.792Z,100168.91
2022-09-01T06:52:04.757Z,100165.00
2022-09-01T06:54:35.406Z,100164.41
2022-09-01T06:59:52.342Z,100167.56
2022-09-01T07:02:20.382Z,100170.19
2022-09-01T07:08:10.897Z,100174.19
2022-09-01T07:14:16.078Z,100174.31
2022-09-01T07:16:51.924Z,100183.72
2022-09-01T07:19:19.414Z,100193.28
2022-09-01T07:22:08.495Z,100194.13
2022-09-01T07:24:39.966Z,100192.91
2022-09-01T07:27:35.630Z,100191.44
2022-09-01T07:30:09.682Z,100185.69
2022-09-01T07:32:43.730Z,100196.59
2022-09-01T07:35:39.188Z,100194.31
2022-09-01T07:43:08.190Z,100201.47
2022-09-01T07:45:59.345Z,100192.88
2022-09-01T07:48:37.178Z,100198.44
2022-09-01T07:51:36.561Z,100202.88
2022-09-01T07:54:05.159Z,100197.41
2022-09-01T07:56:35.153Z,100200.38
2022-09-01T07:59:04.442Z,100199.09
2022-09-01T08:01:34.304Z,100204.13
2022-09-01T08:04:02.449Z,100205.06
2022-09-01T08:06:37.933Z,100207.75
2022-09-01T08:09:11.820Z,100210.78
2022-09-01T08:14:26.879Z,100206.47
2022-09-01T08:16:53.946Z,100207.56
2022-09-01T08:19:20.993Z,100206.78
2022-09-01T08:22:06.465Z,100200.41
2022-09-01T08:24:53.785Z,100199.91
2022-09-01T08:27:21.500Z,100190.78
2022-09-01T08:29:48.754Z,100201.56
2022-09-01T08:32:15.598Z,100197.06
2022-09-01T08:34:43.485Z,100198.34
2022-09-01T08:37:10.887Z,100209.19
2022-09-01T08:39:38.354Z,100201.09
2022-09-01T08:42:15.103Z,100197.63
2022-09-01T08:45:09.357Z,100197.97
2022-09-01T08:47:58.361Z,100197.22
2022-09-01T08:50:23.835Z,100201.19
2022-09-01T08:53:13.518Z,100196.00
2022-09-01T08:55:44.422Z,100197.25
2022-09-01T08:58:15.988Z,100203.53
2022-09-01T09:01:09.845Z,100200.56
2022-09-01T09:04:27.641Z,100193.22
2022-09-01T09:07:26.799Z,100190.75
2022-09-01T09:09:59.323Z,100190.38
2022-09-01T09:12:52.871Z,100189.94
2022-09-01T09:15:51.955Z,100191.38
2022-09-01T09:18:38.941Z,100186.44
2022-09-01T09:21:33.922Z,100194.31
2022-09-01T09:24:47.145Z,100186.25
2022-09-01T09:27:31.127Z,100190.31
2022-09-01T09:30:12.844Z,100187.91
2022-09-01T09:33:44.212Z,100181.84
2022-09-01T09:35:54.903Z,100185.69
2022-09-01T09:38:28.916Z,100185.69
2022-09-01T09:41:18.355Z,100188.38
2022-09-01T09:44:00.005Z,100190.84
2022-09-01T09:46:32.639Z,100188.16
2022-09-01T09:49:19.490Z,100186.78
2022-09-01T09:52:01.962Z,100182.53
2022-09-01T09:54:35.032Z,100192.50
2022-09-01T09:57:31.533Z,100184.97
2022-09-01T10:00:05.674Z,100169.06
2022-09-01T10:02:44.774Z,100173.19
2022-09-01T10:05:30.560Z,100173.41
2022-09-01T10:07:58.304Z,100176.81
2022-09-01T10:10:27.623Z,100169.72
2022-09-01T10:12:55.236Z,100174.28
2022-09-01T10:15:25.413Z,100170.56
2022-09-01T10:18:19.680Z,100168.06
2022-09-01T10:20:48.680Z,100176.16
2022-09-01T10:23:15.766Z,100179.50
2022-09-01T10:25:43.809Z,100177.81
2022-09-01T10:28:20.893Z,100165.75
2022-09-01T10:30:48.107Z,100166.81
2022-09-01T10:33:20.802Z,100171.81
2022-09-01T10:35:51.522Z,100176.13
2022-09-01T10:38:24.880Z,100167.81
2022-09-01T10:41:14.142Z,100169.09
2022-09-01T10:43:44.207Z,100166.00
2022-09-01T10:46:42.260Z,100166.53
2022-09-01T10:49:46.427Z,100163.84
2022-09-01T10:56:51.163Z,100167.66
2022-09-01T10:59:34.471Z,100171.66
2022-09-01T11:02:27.506Z,100161.09
2022-09-01T11:04:55.300Z,100163.16
2022-09-01T11:07:38.263Z,100157.97
2022-09-01T11:10:43.362Z,100155.25
2022-09-01T11:13:28.395Z,100160.06
2022-09-01T11:15:55.200Z,100153.91
2022-09-01T11:18:31.282Z,100149.53
2022-09-01T11:21:19.794Z,100144.56
2022-09-01T11:23:48.259Z,100145.22
2022-09-01T11:26:33.247Z,100141.47
2022-09-01T11:29:00.779Z,100152.31
2022-09-01T11:31:41.042Z,100131.31
2022-09-01T11:34:13.654Z,100138.78
2022-09-01T11:36:50.186Z,100134.84
2022-09-01T11:39:18.995Z,100132.34
2022-09-01T11:41:54.532Z,100138.56
2022-09-01T11:44:34.772Z,100134.84
2022-09-01T11:47:14.422Z,100122.34
2022-09-01T11:49:50.603Z,100119.00
2022-09-01T11:52:18.970Z,100113.59
2022-09-01T11:54:49.354Z,100116.72
2022-09-01T11:57:33.897Z,100119.63
2022-09-01T12:00:04.186Z,100112.16
2022-09-01T12:02:45.427Z,100107.75
2022-09-01T12:05:27.436Z,100107.13
2022-09-01T12:07:54.627Z,100105.03
2022-09-01T12:10:31.701Z,100102.75
2022-09-01T12:13:06.180Z,100093.59
2022-09-01T12:15:35.050Z,100096.13
2022-09-01T12:18:22.060Z,100092.34
2022-09-01T12:20:50.907Z,100095.88
2022-09-01T12:23:47.333Z,100089.22
2022-09-01T12:26:16.642Z,100087.56
2022-09-01T12:28:53.033Z,100083.41
2022-09-01T12:31:23.941Z,100081.94
2022-09-01T12:33:52.106Z,100081.75
2022-09-01T12:36:34.774Z,100084.03
2022-09-01T12:39:22.686Z,100087.34
2022-09-01T12:42:20.522Z,100080.28
2022-09-01T12:44:50.484Z,100083.63
2022-09-01T12:47:48.167Z,100077.13
2022-09-01T12:50:16.599Z,100085.47
2022-09-01T12:52:52.450Z,100084.41
2022-09-01T12:58:21.490Z,100074.22
2022-09-01T13:01:00.291Z,100071.28
2022-09-01T13:03:27.887Z,100067.28
2022-09-01T13:05:56.297Z,100066.88
2022-09-01T13:08:27.076Z,100064.78
2022-09-01T13:11:04.046Z,100065.59
2022-09-01T13:13:30.823Z,100056.22
2022-09-01T13:16:01.679Z,100051.22
2022-09-01T13:18:29.172Z,100053.25
2022-09-01T13:20:57.316Z,100048.03
2022-09-01T13:23:24.057Z,100037.81
2022-09-01T13:25:51.091Z,100048.44
2022-09-01T13:28:18.493Z,100046.94
2022-09-01T13:30:48.184Z,100046.75
2022-09-01T13:33:19.531Z,100034.03
2022-09-01T13:35:54.043Z,100037.16
2022-09-01T13:38:21.167Z,100033.81
2022-09-01T13:40:49.755Z,100034.44
2022-09-01T13:43:20.073Z,100025.69
2022-09-01T13:45:47.010Z,100028.84
2022-09-01T13:48:15.887Z,100021.34
2022-09-01T13:51:14.920Z,100031.56
2022-09-01T13:58:37.557Z,100011.53
2022-09-01T14:01:09.470Z,100018.41
2022-09-01T14:03:36.426Z,100020.91
2022-09-01T14:06:03.508Z,100026.53
2022-09-01T14:08:30.887Z,100023.41
2022-09-01T14:10:57.567Z,100019.53
2022-09-01T14:13:24.857Z,100024.13
2022-09-01T14:15:53.482Z,100035.66
2022-09-01T14:18:21.787Z,100029.41
2022-09-01T14:20:51.134Z,100033.59
2022-09-01T14:23:19.338Z,100027.13
2022-09-01T14:25:48.737Z,100026.72
2022-09-01T14:32:47.547Z,100027.53
2022-09-01T14:35:15.818Z,100027.34
2022-09-01T14:37:42.571Z,100021.94
2022-09-01T14:40:10.968Z,100026.28
2022-09-01T14:42:43.970Z,100022.16
2022-09-01T14:45:15.597Z,100019.03
2022-09-01T14:47:42.314Z,100011.53
2022-09-01T14:50:12.177Z,100010.25
2022-09-01T14:52:39.132Z,100011.09
2022-09-01T14:55:06.101Z,100006.50
2022-09-01T14:57:36.898Z,100004.03
2022-09-01T15:00:10.161Z,99996.50
2022-09-01T15:02:37.556Z,99999.81
2022-09-01T15:05:05.089Z,100003.97
2022-09-01T15:07:31.770Z,100001.28
2022-09-01T15:09:58.951Z,99999.19
2022-09-01T15:16:59.155Z,99993.97
2022-09-01T15:19:25.893Z,99992.72
2022-09-01T15:26:23.400Z,99996.88
2022-09-01T15:28:50.103Z,99986.44
2022-09-01T15:31:18.509Z,99993.31
2022-09-01T15:34:24.890Z,99993.75
2022-09-01T15:36:51.575Z,99999.56
2022-09-01T15:39:18.245Z,99998.50
2022-09-01T15:41:45.322Z,99996.03
2022-09-01T15:44:12.223Z,99991.88
2022-09-01T15:46:40.475Z,99992.06
2022-09-01T15:49:57.830Z,100000.44
2022-09-01T15:52:27.270Z,99998.75
2022-09-01T15:54:53.949Z,99994.16
2022-09-01T15:57:20.645Z,99994.16
2022-09-01T15:59:47.290Z,99983.94
2022-09-01T16:02:17.709Z,99997.47
2022-09-01T16:04:44.562Z,99983.69
2022-09-01T16:07:11.225Z,99979.34
2022-09-01T16:09:37.966Z,99994.75
2022-09-01T16:12:05.991Z,99981.84
2022-09-01T16:14:32.666Z,99980.97
2022-09-01T16:17:04.169Z,99988.09
2022-09-01T16:19:36.902Z,99975.56
2022-09-01T16:22:21.025Z,99975.25
2022-09-01T16:24:51.440Z,99976.63
2022-09-01T16:27:24.542Z,99965.78
2022-09-01T16:30:08.453Z,99972.47
2022-09-01T16:32:45.229Z,99967.06
2022-09-01T16:35:13.651Z,99968.88
2022-09-01T16:37:48.680Z,99967.44
2022-09-01T16:40:30.071Z,99973.53
2022-09-01T16:43:57.626Z,99978.34
2022-09-01T16:46:30.686Z,99971.84
2022-09-01T16:49:06.971Z,99972.91
2022-09-01T16:52:05.647Z,99981.28
2022-09-01T16:55:09.497Z,99974.44
2022-09-01T16:58:06.204Z,99970.06
2022-09-01T17:01:26.381Z,99962.78
2022-09-01T17:04:17.696Z,99960.88
2022-09-01T17:06:54.871Z,99966.69
2022-09-01T17:09:35.590Z,99957.75
2022-09-01T17:12:40.897Z,99968.81
2022-09-01T17:15:14.651Z,99966.69
2022-09-01T17:18:23.298Z,99968.44
2022-09-01T17:20:58.324Z,99965.47
2022-09-01T17:23:30.309Z,99965.47
2022-09-01T17:26:01.819Z,99968.38
2022-09-01T17:29:23.162Z,99967.78
2022-09-01T17:32:09.821Z,99970.06
2022-09-01T17:34:57.577Z,99973.00
2022-09-01T17:37:51.639Z,99970.91
2022-09-01T17:40:23.165Z,99977.16
2022-09-01T17:43:31.116Z,99978.84
2022-09-01T17:46:31.324Z,99980.50
2022-09-01T17:49:34.377Z,99980.50
2022-09-01T17:52:19.089Z,99981.94
2022-09-01T17:54:54.746Z,99986.53
2022-09-01T17:57:46.489Z,99983.00
2022-09-01T18:00:34.606Z,99978.22
2022-09-01T18:03:28.437Z,99986.97
2022-09-01T18:06:05.013Z,99986.16
2022-09-01T18:08:31.629Z,99983.44
2022-09-01T18:11:02.370Z,99983.44
2022-09-01T18:13:55.763Z,99982.41
2022-09-01T18:16:31.176Z,99993.06
2022-09-01T18:19:10.226Z,99999.91
2022-09-01T18:21:49.294Z,99996.38
2022-09-01T18:24:27.058Z,100000.13
2022-09-01T18:26:53.774Z,99999.50
2022-09-01T18:29:21.450Z,100014.72
2022-09-01T18:32:12.302Z,100009.50
2022-09-01T18:34:58.829Z,100014.28
2022-09-01T18:37:45.317Z,100018.00
2022-09-01T18:40:46.125Z,100014.69
2022-09-01T18:43:42.013Z,100016.31
2022-09-01T18:46:26.962Z,100015.50
2022-09-01T18:49:05.862Z,100024.91
2022-09-01T18:52:04.341Z,100028.41
2022-09-01T18:54:50.351Z,100032.97
2022-09-01T18:57:20.974Z,100032.16
2022-09-01T19:00:19.142Z,100026.13
2022-09-01T19:07:12.218Z,100035.63
2022-09-01T19:10:03.381Z,100024.63
2022-09-01T19:12:44.300Z,100033.16
2022-09-01T19:15:30.166Z,100031.28
2022-09-01T19:18:04.204Z,100029.84
2022-09-01T19:25:23.646Z,100032.31
2022-09-01T19:27:58.868Z,100028.94
2022-09-01T19:35:07.375Z,100033.66
2022-09-01T19:37:34.084Z,100033.72
2022-09-01T19:40:00.998Z,100038.28
2022-09-01T19:42:38.629Z,100042.00
2022-09-01T19:54:12.761Z,100042.69
2022-09-01T19:56:49.567Z,100035.78
2022-09-01T20:00:09.246Z,100044.59
2022-09-01T20:02:50.018Z,100038.84
2022-09-01T20:05:27.432Z,100037.38
2022-09-01T20:12:50.139Z,100048.69
2022-09-01T20:15:25.658Z,100042.69
2022-09-01T20:23:18.360Z,100044.63
2022-09-01T20:25:53.776Z,100038.06
2022-09-01T20:28:59.411Z,100040.09
2022-09-01T20:35:39.735Z,100038.28
2022-09-01T20:38:46.031Z,100043.03
2022-09-01T20:45:20.614Z,100040.28
2022-09-01T20:48:02.037Z,100038.31
2022-09-01T20:51:02.819Z,100033.53
2022-09-01T20:53:41.685Z,100037.56
2022-09-01T20:56:08.396Z,100036.03
2022-09-01T20:58:44.967Z,100043.59
2022-09-01T21:01:19.505Z,100031.34
2022-09-01T21:04:12.250Z,100040.00
2022-09-01T21:06:48.492Z,100035.47
2022-09-01T21:13:54.926Z,100042.91
2022-09-01T21:16:44.364Z,100040.34
2022-09-01T21:19:19.608Z,100039.25
2022-09-01T21:26:13.978Z,100036.63
2022-09-01T21:28:43.911Z,100040.00
2022-09-01T21:31:13.014Z,100034.97
2022-09-01T21:33:39.855Z,100036.81
2022-09-01T21:36:06.927Z,100031.78
2022-09-01T21:38:33.669Z,100036.50
2022-09-01T21:41:01.454Z,100037.28
2022-09-01T21:43:34.634Z,100028.41
2022-09-01T21:46:01.776Z,100031.63
2022-09-01T21:48:30.016Z,100033.41
2022-09-01T21:50:56.691Z,100030.09
2022-09-01T21:53:23.543Z,100038.63
2022-09-01T21:55:50.203Z,100031.75
2022-09-01T21:58:17.013Z,100038.81
2022-09-01T22:00:44.488Z,100037.16
2022-09-01T22:03:12.523Z,100032.16
2022-09-01T22:05:44.746Z,100031.69
2022-09-01T22:08:13.395Z,100035.81
2022-09-01T22:10:44.258Z,100031.25
2022-09-01T22:13:11.693Z,100027.91
2022-09-01T22:15:44.493Z,100024.03
2022-09-01T22:18:11.368Z,100029.88
2022-09-01T22:20:39.293Z,100033.53
2022-09-01T22:23:06.918Z,100030.63
2022-09-01T22:25:34.818Z,100030.38
2022-09-01T22:28:03.762Z,100020.47
2022-09-01T22:30:31.387Z,100025.47
2022-09-01T22:32:59.904Z,100024.81
2022-09-01T22:35:26.766Z,100017.56
2022-09-01T22:37:53.582Z,100019.97
2022-09-01T22:40:20.499Z,100020.16
2022-09-01T22:42:47.351Z,100020.34
2022-09-01T22:45:15.011Z,100022.38
2022-09-01T22:47:42.087Z,100020.91
2022-09-01T22:50:09.863Z,100020.38
2022-09-01T22:52:37.041Z,100022.31
2022-09-01T22:55:07.006Z,100014.97
2022-09-01T22:57:34.479Z,100029.50
2022-09-01T23:00:01.334Z,100018.50
2022-09-01T23:02:28.395Z,100027.19
2022-09-01T23:04:55.464Z,100018.97
2022-09-01T23:07:22.172Z,100030.13
2022-09-01T23:09:48.959Z,100021.31
2022-09-01T23:12:15.755Z,100026.16
2022-09-01T23:14:42.631Z,100023.44
2022-09-01T23:17:09.502Z,100025.50
2022-09-01T23:19:36.290Z,100031.91
2022-09-01T23:22:03.137Z,100030.03
2022-09-01T23:24:30.057Z,100035.00
2022-09-01T23:26:56.913Z,100037.41
2022-09-01T23:29:25.348Z,100029.88
2022-09-01T23:31:52.612Z,100035.28
2022-09-01T23:34:19.511Z,100037.50
2022-09-01T23:36:46.285Z,100033.31
2022-09-01T23:39:13.046Z,100039.25
2022-09-01T23:41:39.837Z,100032.03
2022-09-01T23:44:09.729Z,100034.44
2022-09-01T23:46:41.007Z,100029.06
2022-09-01T23:49:08.150Z,100024.13
2022-09-01T23:51:35.767Z,100027.22
2022-09-01T23:54:03.001Z,100022.00
2022-09-01T23:56:30.663Z,100026.28
2022-09-01T23:58:58.550Z,100020.44
